LH1896 / D-ACNO 7700 Squawk Report (31st of July, 2021)

Aircraft CRJ9 Reg No. D-ACNO Age 11 years old
Model Regional-Jet Jet engines 2 First flight 25-03-10
Registered 01-05-10 Rollout 03-10 Delivered 01-05-10
Construction No. 15255 Line No. N/A Series 900
ADSHEX 3C4DCF Airline name Lufthansa Regional Owner Lufthansa Cityline
Airfield based Munich~Bayern~D First tracked N/A

Flight history for D-ACNO

Time Lat Lon Altitude Heading Speed Vertical Rate
2021-07-31 13:35:41 GMT 44.792610 12.738477 10,000 167 377 -3420
2021-07-31 13:35:41 GMT 44.792610 12.738477 10,525 167 377 -3420
2021-07-31 13:35:35 GMT 44.801193 12.735833 10,975 167 391 -3540
2021-07-31 13:35:15 GMT 44.835030 12.725446 11,625 167 399 -3600
2021-07-31 13:35:10 GMT 44.844273 12.722608 12,150 167 406 -4440
2021-07-31 13:35:08 GMT 44.847317 12.721778 12,200 167 402 -4620
2021-07-31 13:35:04 GMT 44.854050 12.719596 12,250 167 397 -4800
2021-07-31 13:34:52 GMT 44.875477 12.712998 13,250 167 403 -4500
2021-07-31 13:34:49 GMT 44.879700 12.711845 13,375 167 415 -5100
2021-07-31 13:34:40 GMT 44.896301 12.706607 14,050 167 429 -4860
2021-07-31 13:34:38 GMT 44.899628 12.705443 14,175 167 416 -4620
2021-07-31 13:34:33 GMT 44.907806 12.703050 14,850 167 434 -4920
2021-07-31 13:34:29 GMT 44.928272 12.696636 15,100 167 448 -4680
2021-07-31 13:34:22 GMT 44.928272 12.696636 15,550 167 448 -4680
2021-07-31 13:34:20 GMT 44.931751 12.695539 15,550 167 438 -5280
2021-07-31 13:34:17 GMT 44.944584 12.691578 15,900 167 431 -4680
2021-07-31 13:34:13 GMT 44.944584 12.691578 16,050 167 431 -4680
2021-07-31 13:34:10 GMT 44.950020 12.689880 16,325 167 435 -5040
2021-07-31 13:34:07 GMT 44.962788 12.686050 16,650 167 436 -4800
2021-07-31 13:34:03 GMT 44.962788 12.686050 17,025 167 436 -4800
2021-07-31 13:34:01 GMT 44.966129 12.684969 17,025 167 436 -4500
2021-07-31 13:33:58 GMT 44.971127 12.683290 17,325 167 445 -5160
2021-07-31 13:33:53 GMT 44.980923 12.680366 17,600 167 449 -4560
2021-07-31 13:33:51 GMT 44.984432 12.679334 17,775 167 420 -4380
2021-07-31 13:33:46 GMT 44.992996 12.676748 18,125 167 452 -4680
2021-07-31 13:33:43 GMT 44.999146 12.674662 18,425 167 447 -4800
2021-07-31 13:33:40 GMT 45.004959 12.672911 18,725 167 440 -4740
2021-07-31 13:33:38 GMT 45.007923 12.672048 18,950 167 449 -4320
2021-07-31 13:33:34 GMT 45.014599 12.670023 19,100 167 461 -4560
2021-07-31 13:33:30 GMT 45.022587 12.667477 19,425 167 451 -4500
2021-07-31 13:33:27 GMT 45.028637 12.665618 19,525 167 424 -4200
2021-07-31 13:33:23 GMT 45.035881 12.663374 19,800 167 434 -4680
2021-07-31 13:33:19 GMT 45.044247 12.660621 20,025 167 432 -4620
2021-07-31 13:33:17 GMT 45.047379 12.659721 20,200 167 432 -4200
2021-07-31 13:33:14 GMT 45.052212 12.658233 20,400 167 431 -4500
2021-07-31 13:33:03 GMT 45.072334 12.652273 21,400 167 437 -4500
2021-07-31 13:32:51 GMT 45.095921 12.644459 22,175 167 444 -4560
2021-07-31 13:32:48 GMT 45.101765 12.642746 22,375 167 446 -4560
2021-07-31 13:32:43 GMT 45.111477 12.639818 22,825 167 442 -4560
2021-07-31 13:32:39 GMT 45.118423 12.637878 23,275 167 443 -4320
2021-07-31 13:32:35 GMT 45.125561 12.635787 23,400 167 443 -4080
2021-07-31 13:32:24 GMT 45.147305 12.628792 24,075 167 451 -4200
2021-07-31 13:32:20 GMT 45.155796 12.625941 24,425 167 442 -4680
2021-07-31 13:32:16 GMT 45.163185 12.623510 24,725 167 444 -4680
2021-07-31 13:32:11 GMT 45.172153 12.620703 25,075 167 457 -4500
2021-07-31 13:32:07 GMT 45.199501 12.612166 25,425 167 465 -4800
2021-07-31 13:31:57 GMT 45.199501 12.612166 26,075 167 465 -4800
2021-07-31 13:31:49 GMT 45.215313 12.607549 26,700 167 476 -4800
2021-07-31 13:31:45 GMT 45.223236 12.605029 27,000 166 486 -5160
2021-07-31 13:31:42 GMT 45.229622 12.602562 27,100 167 472 -4320
2021-07-31 13:31:37 GMT 45.245640 12.597557 27,675 167 474 -4860
2021-07-31 13:31:34 GMT 45.251389 12.596193 27,875 167 466 -4440
2021-07-31 13:31:31 GMT 45.251389 12.596193 28,150 167 466 -4440
2021-07-31 13:31:25 GMT 45.263885 12.591838 28,600 167 486 -5040
2021-07-31 13:31:23 GMT 45.267822 12.590597 28,525 167 464 -5040
2021-07-31 13:31:20 GMT 45.287788 12.584469 28,750 167 472 -5040
2021-07-31 13:31:13 GMT 45.290966 12.583338 29,375 167 464 -4560
2021-07-31 13:31:11 GMT 45.290966 12.583338 29,525 167 464 -4560
2021-07-31 13:31:04 GMT 45.309311 12.577443 29,850 167 466 -4800
2021-07-31 13:31:02 GMT 45.309311 12.577443 30,175 167 466 -4800
2021-07-31 13:30:58 GMT 45.316944 12.575075 30,500 167 464 -4500
2021-07-31 13:30:51 GMT 45.336651 12.568810 31,125 167 485 -4020
2021-07-31 13:30:48 GMT 45.347183 12.565671 31,300 167 470 -4140
2021-07-31 13:30:43 GMT 45.347183 12.565671 31,675 167 470 -4140
2021-07-31 13:30:39 GMT 45.355335 12.563298 31,900 167 474 -3480
2021-07-31 13:30:35 GMT 45.362881 12.560940 32,175 167 477 -3540
2021-07-31 13:30:32 GMT 45.369633 12.559475 32,425 167 460 -3000
2021-07-31 13:30:27 GMT 45.380135 12.555610 32,775 167 445 -2340
2021-07-31 13:30:21 GMT 45.391228 12.551990 33,275 167 460 -2160
2021-07-31 13:30:16 GMT 45.402138 12.548665 33,325 167 443 -1920
2021-07-31 13:30:11 GMT 45.411320 12.545768 33,800 167 459 -1140
2021-07-31 13:30:02 GMT 45.429317 12.540199 34,075 167 456 -840
2021-07-31 13:29:55 GMT 45.442379 12.536117 34,150 168 457 -360
2021-07-31 13:29:44 GMT 45.465530 12.529005 34,500 167 457 0
2021-07-31 13:29:41 GMT 45.470100 12.528034 34,550 167 462 240
2021-07-31 13:29:37 GMT 45.479729 12.524260 34,625 167 456 540
2021-07-31 13:29:07 GMT 45.540573 12.505703 35,000 165 541 840
2021-07-31 13:29:03 GMT 45.547886 12.505041 34,975 165 474 840
2021-07-31 13:28:43 GMT 45.589157 12.489583 34,750 164 451 840
2021-07-31 13:28:27 GMT 45.621281 12.479324 34,550 164 452 840
2021-07-31 13:27:58 GMT 45.681625 12.460107 34,150 157 479 360
2021-07-31 13:27:12 GMT 45.817200 12.402067 33,400 157 479 360
2021-07-31 13:26:55 GMT 45.817249 12.402040 33,100 153 480 60
2021-07-31 13:26:49 GMT 45.817280 12.402021 33,000 149 485 0
2021-07-31 13:26:44 GMT 45.826691 12.396363 33,000 141 554 0
2021-07-31 13:26:40 GMT 45.834782 12.390703 33,000 140 487 0
2021-07-31 13:26:36 GMT 45.843044 12.384395 33,000 139 482 0
2021-07-31 13:26:30 GMT 45.853264 12.374953 33,000 138 480 0
2021-07-31 13:26:21 GMT 45.869354 12.358276 33,000 136 483 0
2021-07-31 13:25:54 GMT 45.924557 12.284130 33,025 136 493 0
2021-07-31 13:25:47 GMT 45.924583 12.284095 33,000 137 480 0
2021-07-31 13:25:43 GMT 45.930866 12.275636 33,000 139 512 0
2021-07-31 13:25:33 GMT 45.945637 12.255497 33,000 140 492 0
2021-07-31 13:25:29 GMT 45.952057 12.246952 33,025 141 483 0
2021-07-31 13:25:23 GMT 45.961922 12.233602 33,025 144 467 0
2021-07-31 13:25:16 GMT 45.973087 12.219616 33,025 148 479 0
2021-07-31 13:25:05 GMT 45.997566 12.193369 33,025 152 476 0
2021-07-31 13:25:02 GMT 45.997787 12.193182 33,000 153 468 0
2021-07-31 13:24:59 GMT 46.002453 12.189292 33,000 154 463 0
2021-07-31 13:24:50 GMT 46.018478 12.176928 33,000 155 522 0
2021-07-31 13:24:44 GMT 46.031075 12.168683 33,000 155 480 0
2021-07-31 13:24:42 GMT 46.034859 12.166229 33,000 155 484 0
2021-07-31 13:24:38 GMT 46.042122 12.161979 33,000 155 459 0
2021-07-31 13:24:33 GMT 46.050812 12.156522 33,025 155 462 0
2021-07-31 13:24:21 GMT 46.080013 12.137226 33,000 155 509 0
2021-07-31 13:24:18 GMT 46.080013 12.137226 33,000 155 509 0
2021-07-31 13:24:10 GMT 46.097851 12.125376 33,025 154 463 0
2021-07-31 13:24:08 GMT 46.104553 12.120997 33,000 155 467 0
2021-07-31 13:24:04 GMT 46.104553 12.120997 33,000 155 467 0
2021-07-31 13:24:00 GMT 46.112232 12.116454 33,000 156 463 0
2021-07-31 13:23:50 GMT 46.137352 12.098861 33,000 157 465 0
2021-07-31 13:23:46 GMT 46.137676 12.098638 33,000 159 472 0
2021-07-31 13:23:43 GMT 46.143581 12.094588 33,025 161 452 60
2021-07-31 13:23:39 GMT 46.151138 12.090143 33,025 163 450 60
2021-07-31 13:23:32 GMT 46.170551 12.080366 33,000 167 444 0
2021-07-31 13:23:29 GMT 46.170551 12.080366 33,000 167 444 0
2021-07-31 13:23:26 GMT 46.182728 12.075952 33,000 169 473 -60
2021-07-31 13:23:22 GMT 46.182728 12.075952 33,000 169 473 -60
2021-07-31 13:23:18 GMT 46.190910 12.073533 33,000 170 475 0
2021-07-31 13:23:11 GMT 46.204140 12.069836 33,000 171 460 0
2021-07-31 13:23:06 GMT 46.214790 12.067496 33,000 171 455 0
2021-07-31 13:23:03 GMT 46.220928 12.066150 33,000 171 448 0
2021-07-31 13:23:00 GMT 46.226608 12.064808 33,025 171 559 0
2021-07-31 13:22:47 GMT 46.258099 12.058098 33,000 171 470 0
2021-07-31 13:22:44 GMT 46.258327 12.058058 33,000 171 444 0
2021-07-31 13:22:41 GMT 46.263817 12.057156 33,025 171 442 0
2021-07-31 13:22:37 GMT 46.271526 12.055740 33,025 171 447 0
2021-07-31 13:22:00 GMT 46.377651 12.032638 33,000 171 471 0
2021-07-31 13:21:47 GMT 46.377697 12.032629 33,000 170 612 0
2021-07-31 13:21:44 GMT 46.377716 12.032625 33,000 170 487 0
2021-07-31 13:21:38 GMT 46.388885 12.030496 32,975 170 452 0
2021-07-31 13:21:33 GMT 46.399616 12.028350 33,000 170 450 0
2021-07-31 13:21:29 GMT 46.408558 12.026021 33,000 167 459 0
2021-07-31 13:20:51 GMT 46.524624 11.998082 33,000 166 461 0
2021-07-31 13:20:37 GMT 46.524624 11.998082 33,000 166 461 0
2021-07-31 13:20:31 GMT 46.524658 11.998071 33,025 166 464 120
2021-07-31 13:20:25 GMT 46.536217 11.994376 33,025 166 474 120
2021-07-31 13:20:21 GMT 46.554695 11.988007 33,025 166 475 180
2021-07-31 13:20:16 GMT 46.554695 11.988007 33,025 166 475 180
2021-07-31 13:20:13 GMT 46.560635 11.985905 33,000 166 462 180
2021-07-31 13:20:10 GMT 46.566269 11.983842 33,000 166 460 420
2021-07-31 13:20:07 GMT 46.572021 11.982191 33,000 165 457 600
2021-07-31 13:20:03 GMT 46.579586 11.979493 32,975 165 463 840
2021-07-31 13:20:00 GMT 46.586006 11.977482 32,975 164 440 1140
2021-07-31 13:19:55 GMT 46.595268 11.973891 32,950 164 460 1440
2021-07-31 13:19:52 GMT 46.600674 11.971829 32,900 164 459 1500
2021-07-31 13:19:46 GMT 46.617924 11.964905 32,850 164 456 1800
2021-07-31 13:19:43 GMT 46.617924 11.964905 32,775 164 456 1800
2021-07-31 13:19:39 GMT 46.624977 11.962192 32,625 163 466 1560
2021-07-31 13:19:32 GMT 46.639843 11.956047 32,425 163 447 1440
2021-07-31 13:19:26 GMT 46.651539 11.951076 32,350 163 441 1620
2021-07-31 13:19:22 GMT 46.658947 11.948266 32,250 163 456 1740
2021-07-31 13:19:18 GMT 46.666412 11.944771 32,075 164 462 1500
2021-07-31 13:19:15 GMT 46.672302 11.942182 31,975 164 452 1620
2021-07-31 13:19:02 GMT 46.697124 11.931391 31,700 164 458 1620
2021-07-31 13:18:58 GMT 46.723404 11.920987 31,600 164 458 1560
2021-07-31 13:18:49 GMT 46.723404 11.920987 31,225 164 458 1560
2021-07-31 13:18:46 GMT 46.734669 11.916210 31,225 163 457 1140
2021-07-31 13:18:43 GMT 46.734669 11.916210 31,225 163 457 1140
2021-07-31 13:18:37 GMT 46.745998 11.911788 30,950 163 479 1200
2021-07-31 13:18:34 GMT 46.751930 11.909055 30,950 164 472 1320
2021-07-31 13:18:28 GMT 46.763332 11.904322 30,750 163 478 1200
2021-07-31 13:18:23 GMT 46.773277 11.899991 30,650 164 461 1020
2021-07-31 13:18:18 GMT 46.783222 11.895576 30,550 164 473 1140
2021-07-31 13:18:15 GMT 46.789909 11.893134 30,475 164 467 960
2021-07-31 13:18:12 GMT 46.795876 11.890878 30,400 163 459 960
2021-07-31 13:18:09 GMT 46.801258 11.888449 30,325 164 461 1080
2021-07-31 13:17:55 GMT 46.828430 11.877246 30,200 163 460 1140
2021-07-31 13:17:52 GMT 46.848351 11.868891 30,050 164 476 1080
2021-07-31 13:17:45 GMT 46.852386 11.867092 29,950 164 449 1020
2021-07-31 13:17:43 GMT 46.852386 11.867092 29,875 164 449 1020
2021-07-31 13:17:39 GMT 46.868198 11.860369 29,850 165 465 1080
2021-07-31 13:17:34 GMT 46.879208 11.856075 29,800 169 437 840
2021-07-31 13:17:29 GMT 46.879208 11.856075 29,725 169 437 840
2021-07-31 13:17:24 GMT 46.888821 11.852192 29,625 173 435 840
2021-07-31 13:17:20 GMT 46.908169 11.844871 29,550 179 426 480
2021-07-31 13:17:14 GMT 46.908169 11.844871 29,425 179 426 480
2021-07-31 13:17:09 GMT 46.917683 11.842182 29,350 184 459 420
2021-07-31 13:16:55 GMT 46.944359 11.838085 29,100 188 443 120
2021-07-31 13:16:45 GMT 46.964512 11.840659 29,000 189 443 0
2021-07-31 13:16:42 GMT 46.969666 11.842237 29,000 188 442 0
2021-07-31 13:16:39 GMT 46.974869 11.844062 29,000 186 447 0
2021-07-31 13:16:24 GMT 47.010956 11.853172 29,000 180 461 -60
2021-07-31 13:16:21 GMT 47.011078 11.853194 28,975 180 458 -60
2021-07-31 13:16:16 GMT 47.020557 11.854959 29,000 178 468 0
2021-07-31 13:16:10 GMT 47.031887 11.855149 29,000 178 474 0
2021-07-31 13:16:04 GMT 47.044262 11.854826 29,025 176 479 0
2021-07-31 13:15:55 GMT 47.064236 11.853419 29,025 176 473 0
2021-07-31 13:15:50 GMT 47.074436 11.852854 29,025 176 471 0
2021-07-31 13:15:47 GMT 47.081154 11.852254 29,025 177 457 0
2021-07-31 13:15:42 GMT 47.090816 11.852110 29,025 176 458 0
2021-07-31 13:15:35 GMT 47.105942 11.849905 29,025 177 461 0
2021-07-31 13:15:33 GMT 47.109810 11.849735 29,025 177 450 0
2021-07-31 13:15:27 GMT 47.121117 11.848929 29,025 177 464 60
2021-07-31 13:15:22 GMT 47.131569 11.848311 29,025 177 452 180
2021-07-31 13:15:20 GMT 47.134872 11.848130 29,025 176 451 300
2021-07-31 13:15:13 GMT 47.148987 11.846872 29,000 177 444 480
2021-07-31 13:15:07 GMT 47.161690 11.845902 29,000 176 443 660
2021-07-31 13:15:04 GMT 47.167850 11.845534 29,000 177 429 720
2021-07-31 13:15:01 GMT 47.172176 11.845138 29,000 176 437 780
2021-07-31 13:14:52 GMT 47.190880 11.843823 28,950 176 427 900
2021-07-31 13:14:48 GMT 47.197788 11.843322 28,925 176 435 1020
2021-07-31 13:14:39 GMT 47.227196 11.841060 28,725 176 445 1020
2021-07-31 13:14:33 GMT 47.227196 11.841060 28,625 176 445 1020
2021-07-31 13:14:30 GMT 47.232552 11.840414 28,600 177 440 960
2021-07-31 13:14:27 GMT 47.237892 11.839996 28,575 176 443 1080
2021-07-31 13:14:23 GMT 47.245785 11.839280 28,475 177 439 1080
2021-07-31 13:14:20 GMT 47.259460 11.838386 28,375 177 432 1080
2021-07-31 13:14:16 GMT 47.259460 11.838386 28,350 177 432 1080
2021-07-31 13:14:12 GMT 47.266518 11.838164 28,300 176 430 1140
2021-07-31 13:14:07 GMT 47.276260 11.836957 28,225 177 416 1260
2021-07-31 13:14:01 GMT 47.287704 11.836220 28,125 177 415 1260
2021-07-31 13:13:57 GMT 47.295380 11.835352 28,050 177 416 1500
2021-07-31 13:13:50 GMT 47.309052 11.834859 27,950 176 413 1320
2021-07-31 13:13:47 GMT 47.313774 11.834324 27,875 176 408 1500
2021-07-31 13:13:42 GMT 47.322151 11.833942 27,800 176 420 1620
2021-07-31 13:13:34 GMT 47.337002 11.832527 27,625 176 422 1620
2021-07-31 13:13:25 GMT 47.358227 11.830936 27,350 176 404 1140
2021-07-31 13:13:23 GMT 47.372066 11.829657 27,225 176 427 1500
2021-07-31 13:13:15 GMT 47.372066 11.829657 27,100 176 427 1500
2021-07-31 13:13:11 GMT 47.380196 11.829106 26,975 176 417 1500
2021-07-31 13:13:08 GMT 47.385517 11.828244 26,925 177 404 1320
2021-07-31 13:13:00 GMT 47.406696 11.827077 26,675 176 406 1500
2021-07-31 13:12:56 GMT 47.406696 11.827077 26,600 176 406 1500
2021-07-31 13:12:47 GMT 47.424652 11.825542 26,400 177 381 1380
2021-07-31 13:12:45 GMT 47.427654 11.825549 26,350 176 380 1500
2021-07-31 13:12:42 GMT 47.432182 11.824850 26,275 177 390 1560
2021-07-31 13:12:38 GMT 47.439224 11.824288 26,125 177 387 1560
2021-07-31 13:12:31 GMT 47.451408 11.823577 25,975 176 397
2021-07-31 13:12:27 GMT 47.456894 11.823156 25,850 176 382
2021-07-31 13:12:16 GMT 47.476322 11.821558 25,625 178 408
2021-07-31 13:12:11 GMT 47.485767 11.821209 25,475 175 379

Making use of Plane Finder data

You are free to use the raw flight data, aircraft information and images provided in this report for your own purposes provided the data is correctly attributed to Plane Finder. We ask that you please credit Plane Finder and link to planefinder.net in close proximity to the content.

Optionally one of the following logos (no smaller then 150x24px) can be used and must link to planefinder.net

Embedding the Plane Finder map

You are welcome to embed the Plane Finder playback map on your website to offer visitors a more interactive experience. We suggest using the following HTML code:

<iframe src="//planefinder.net/data/report/LH1896-D-ACNO-7700-squawk-2021-07-31/map" width="800" height="600" seamless="seamless"></iframe>

Where our data comes from

Plane Finder has a global network of data feeds and antenna radars that receive data broadcast directly from aircraft. The primary technologies used are ADS-B and MLAT. We also show feeds from the FAA and a FLARM glider feed.

Click here to find out more about the Plane Finder network.

How we collect our data